sensor_id;sensor_type;location;lat;lon;timestamp;P1;durP1;ratioP1;P2;durP2;ratioP2
37365;SDS011;23239;51.504;7.456;2023-03-02T00:00:00;10.5;;;7.6;;
37365;SDS011;23239;51.504;7.456;2023-03-02T00:01:02;10.5;;;7.6;;
37365;SDS011;23239;51.504;7.456;2023-03-02T00:02:01;10.5;;;7.6;;
37365;SDS011;23239;51.504;7.456;2023-03-02T00:03:00;10.5;;;7.6;;
37365;SDS011;23239;51.504;7.456;2023-03-02T00:04:00;10.7;;;7.7;;
37365;SDS011;23239;51.504;7.456;2023-03-02T00:05:04;10.7;;;7.7;;
37365;SDS011;23239;51.504;7.456;2023-03-02T00:06:00;10.7;;;7.7;;
37365;SDS011;23239;51.504;7.456;2023-03-02T00:07:00;10.7;;;7.7;;
37365;SDS011;23239;51.504;7.456;2023-03-02T00:08:00;10.7;;;7.7;;
37365;SDS011;23239;51.504;7.456;2023-03-02T00:09:00;12.9;;;7.9;;
37365;SDS011;23239;51.504;7.456;2023-03-02T00:10:00;12.9;;;7.9;;
37365;SDS011;23239;51.504;7.456;2023-03-02T00:11:00;12.9;;;7.9;;
37365;SDS011;23239;51.504;7.456;2023-03-02T00:12:00;12.9;;;7.9;;
37365;SDS011;23239;51.504;7.456;2023-03-02T00:13:00;12.9;;;7.9;;
37365;SDS011;23239;51.504;7.456;2023-03-02T00:14:00;10.9;;;7.6;;
37365;SDS011;23239;51.504;7.456;2023-03-02T00:15:00;10.9;;;7.6;;
37365;SDS011;23239;51.504;7.456;2023-03-02T00:16:00;10.9;;;7.6;;
37365;SDS011;23239;51.504;7.456;2023-03-02T00:17:00;10.9;;;7.6;;
37365;SDS011;23239;51.504;7.456;2023-03-02T00:18:00;10.9;;;7.6;;
37365;SDS011;23239;51.504;7.456;2023-03-02T00:19:00;12.0;;;7.8;;
37365;SDS011;23239;51.504;7.456;2023-03-02T00:20:00;12.0;;;7.8;;
37365;SDS011;23239;51.504;7.456;2023-03-02T00:21:00;12.0;;;7.8;;
37365;SDS011;23239;51.504;7.456;2023-03-02T00:22:00;12.0;;;7.8;;
37365;SDS011;23239;51.504;7.456;2023-03-02T00:23:00;12.0;;;7.8;;
37365;SDS011;23239;51.504;7.456;2023-03-02T00:24:00;11.6;;;8.0;;
37365;SDS011;23239;51.504;7.456;2023-03-02T00:25:00;11.6;;;8.0;;
37365;SDS011;23239;51.504;7.456;2023-03-02T00:26:00;11.6;;;8.0;;
37365;SDS011;23239;51.504;7.456;2023-03-02T00:27:00;11.6;;;8.0;;
37365;SDS011;23239;51.504;7.456;2023-03-02T00:28:00;11.6;;;8.0;;
37365;SDS011;23239;51.504;7.456;2023-03-02T00:29:00;14.6;;;7.5;;
37365;SDS011;23239;51.504;7.456;2023-03-02T00:30:00;14.6;;;7.5;;
37365;SDS011;23239;51.504;7.456;2023-03-02T00:31:02;14.6;;;7.5;;
37365;SDS011;23239;51.504;7.456;2023-03-02T00:32:00;14.6;;;7.5;;
37365;SDS011;23239;51.504;7.456;2023-03-02T00:33:00;14.6;;;7.5;;
37365;SDS011;23239;51.504;7.456;2023-03-02T00:34:00;12.3;;;7.8;;
37365;SDS011;23239;51.504;7.456;2023-03-02T00:35:00;12.3;;;7.8;;
37365;SDS011;23239;51.504;7.456;2023-03-02T00:36:00;12.3;;;7.8;;
37365;SDS011;23239;51.504;7.456;2023-03-02T00:37:00;12.3;;;7.8;;
37365;SDS011;23239;51.504;7.456;2023-03-02T00:38:00;12.3;;;7.8;;
37365;SDS011;23239;51.504;7.456;2023-03-02T00:39:00;10.7;;;7.3;;
37365;SDS011;23239;51.504;7.456;2023-03-02T00:40:00;10.7;;;7.3;;
37365;SDS011;23239;51.504;7.456;2023-03-02T00:41:00;10.7;;;7.3;;
37365;SDS011;23239;51.504;7.456;2023-03-02T00:42:00;10.7;;;7.3;;
37365;SDS011;23239;51.504;7.456;2023-03-02T00:43:00;10.7;;;7.3;;
37365;SDS011;23239;51.504;7.456;2023-03-02T00:44:00;10.2;;;7.4;;
37365;SDS011;23239;51.504;7.456;2023-03-02T00:45:00;10.2;;;7.4;;
37365;SDS011;23239;51.504;7.456;2023-03-02T00:46:06;10.2;;;7.4;;
37365;SDS011;23239;51.504;7.456;2023-03-02T00:47:00;10.2;;;7.4;;
37365;SDS011;23239;51.504;7.456;2023-03-02T00:48:00;10.2;;;7.4;;
37365;SDS011;23239;51.504;7.456;2023-03-02T00:49:00;11.2;;;7.6;;
37365;SDS011;23239;51.504;7.456;2023-03-02T00:50:00;11.2;;;7.6;;
37365;SDS011;23239;51.504;7.456;2023-03-02T00:51:00;11.2;;;7.6;;
37365;SDS011;23239;51.504;7.456;2023-03-02T00:52:00;11.2;;;7.6;;
37365;SDS011;23239;51.504;7.456;2023-03-02T00:53:00;11.2;;;7.6;;
37365;SDS011;23239;51.504;7.456;2023-03-02T00:54:00;11.8;;;7.9;;
37365;SDS011;23239;51.504;7.456;2023-03-02T00:55:00;11.8;;;7.9;;
37365;SDS011;23239;51.504;7.456;2023-03-02T00:56:00;11.8;;;7.9;;
37365;SDS011;23239;51.504;7.456;2023-03-02T00:57:00;11.8;;;7.9;;
37365;SDS011;23239;51.504;7.456;2023-03-02T00:58:00;11.8;;;7.9;;
37365;SDS011;23239;51.504;7.456;2023-03-02T00:59:03;13.2;;;7.8;;
37365;SDS011;23239;51.504;7.456;2023-03-02T01:00:00;13.2;;;7.8;;
37365;SDS011;23239;51.504;7.456;2023-03-02T01:01:03;13.2;;;7.8;;
37365;SDS011;23239;51.504;7.456;2023-03-02T01:02:00;13.2;;;7.8;;
37365;SDS011;23239;51.504;7.456;2023-03-02T01:03:00;13.2;;;7.8;;
37365;SDS011;23239;51.504;7.456;2023-03-02T01:04:00;12.4;;;8.1;;
37365;SDS011;23239;51.504;7.456;2023-03-02T01:05:00;12.4;;;8.1;;
37365;SDS011;23239;51.504;7.456;2023-03-02T01:06:00;12.4;;;8.1;;
37365;SDS011;23239;51.504;7.456;2023-03-02T01:07:01;12.4;;;8.1;;
37365;SDS011;23239;51.504;7.456;2023-03-02T01:08:00;12.4;;;8.1;;
37365;SDS011;23239;51.504;7.456;2023-03-02T01:09:00;13.8;;;8.6;;
37365;SDS011;23239;51.504;7.456;2023-03-02T01:10:00;13.8;;;8.6;;
37365;SDS011;23239;51.504;7.456;2023-03-02T01:11:00;13.8;;;8.6;;
37365;SDS011;23239;51.504;7.456;2023-03-02T01:12:00;13.8;;;8.6;;
37365;SDS011;23239;51.504;7.456;2023-03-02T01:13:00;13.8;;;8.6;;
37365;SDS011;23239;51.504;7.456;2023-03-02T01:14:00;14.0;;;8.5;;
37365;SDS011;23239;51.504;7.456;2023-03-02T01:15:00;14.0;;;8.5;;
37365;SDS011;23239;51.504;7.456;2023-03-02T01:16:00;14.0;;;8.5;;
37365;SDS011;23239;51.504;7.456;2023-03-02T01:17:00;14.0;;;8.5;;
37365;SDS011;23239;51.504;7.456;2023-03-02T01:18:03;14.0;;;8.5;;
37365;SDS011;23239;51.504;7.456;2023-03-02T01:19:00;12.5;;;8.1;;
37365;SDS011;23239;51.504;7.456;2023-03-02T01:20:00;12.5;;;8.1;;
37365;SDS011;23239;51.504;7.456;2023-03-02T01:21:00;12.5;;;8.1;;
37365;SDS011;23239;51.504;7.456;2023-03-02T01:22:00;12.5;;;8.1;;
37365;SDS011;23239;51.504;7.456;2023-03-02T01:23:00;12.5;;;8.1;;
37365;SDS011;23239;51.504;7.456;2023-03-02T01:24:00;11.0;;;8.0;;
37365;SDS011;23239;51.504;7.456;2023-03-02T01:25:00;11.0;;;8.0;;
37365;SDS011;23239;51.504;7.456;2023-03-02T01:26:00;11.0;;;8.0;;
37365;SDS011;23239;51.504;7.456;2023-03-02T01:27:00;11.0;;;8.0;;
37365;SDS011;23239;51.504;7.456;2023-03-02T01:28:00;11.0;;;8.0;;
37365;SDS011;23239;51.504;7.456;2023-03-02T01:29:00;13.8;;;8.5;;
37365;SDS011;23239;51.504;7.456;2023-03-02T01:30:00;13.8;;;8.5;;
37365;SDS011;23239;51.504;7.456;2023-03-02T01:31:00;13.8;;;8.5;;
37365;SDS011;23239;51.504;7.456;2023-03-02T01:32:00;13.8;;;8.5;;
37365;SDS011;23239;51.504;7.456;2023-03-02T01:33:00;13.8;;;8.5;;
37365;SDS011;23239;51.504;7.456;2023-03-02T01:34:00;13.9;;;9.1;;
37365;SDS011;23239;51.504;7.456;2023-03-02T01:35:00;13.9;;;9.1;;
37365;SDS011;23239;51.504;7.456;2023-03-02T01:36:00;13.9;;;9.1;;
37365;SDS011;23239;51.504;7.456;2023-03-02T01:37:00;13.9;;;9.1;;
37365;SDS011;23239;51.504;7.456;2023-03-02T01:38:00;13.9;;;9.1;;
37365;SDS011;23239;51.504;7.456;2023-03-02T01:39:00;11.6;;;8.4;;
37365;SDS011;23239;51.504;7.456;2023-03-02T01:40:00;11.6;;;8.4;;
37365;SDS011;23239;51.504;7.456;2023-03-02T01:41:00;11.6;;;8.4;;
37365;SDS011;23239;51.504;7.456;2023-03-02T01:42:00;11.6;;;8.4;;
37365;SDS011;23239;51.504;7.456;2023-03-02T01:43:00;11.6;;;8.4;;
37365;SDS011;23239;51.504;7.456;2023-03-02T01:44:00;11.7;;;8.1;;
37365;SDS011;23239;51.504;7.456;2023-03-02T01:45:00;11.7;;;8.1;;
37365;SDS011;23239;51.504;7.456;2023-03-02T01:46:00;11.7;;;8.1;;
37365;SDS011;23239;51.504;7.456;2023-03-02T01:47:00;11.7;;;8.1;;
37365;SDS011;23239;51.504;7.456;2023-03-02T01:48:00;11.7;;;8.1;;
37365;SDS011;23239;51.504;7.456;2023-03-02T01:49:00;11.8;;;8.4;;
37365;SDS011;23239;51.504;7.456;2023-03-02T01:50:00;11.8;;;8.4;;
37365;SDS011;23239;51.504;7.456;2023-03-02T01:51:00;11.8;;;8.4;;
37365;SDS011;23239;51.504;7.456;2023-03-02T01:52:00;11.8;;;8.4;;
37365;SDS011;23239;51.504;7.456;2023-03-02T01:53:00;11.8;;;8.4;;
37365;SDS011;23239;51.504;7.456;2023-03-02T01:54:01;15.2;;;9.2;;
37365;SDS011;23239;51.504;7.456;2023-03-02T01:55:00;15.2;;;9.2;;
37365;SDS011;23239;51.504;7.456;2023-03-02T01:56:00;15.2;;;9.2;;
37365;SDS011;23239;51.504;7.456;2023-03-02T01:57:00;15.2;;;9.2;;
37365;SDS011;23239;51.504;7.456;2023-03-02T01:58:00;15.2;;;9.2;;
37365;SDS011;23239;51.504;7.456;2023-03-02T01:59:01;11.5;;;8.5;;
37365;SDS011;23239;51.504;7.456;2023-03-02T02:00:00;11.5;;;8.5;;
37365;SDS011;23239;51.504;7.456;2023-03-02T02:01:00;11.5;;;8.5;;
37365;SDS011;23239;51.504;7.456;2023-03-02T02:02:01;11.5;;;8.5;;
37365;SDS011;23239;51.504;7.456;2023-03-02T02:03:02;11.5;;;8.5;;
37365;SDS011;23239;51.504;7.456;2023-03-02T02:04:00;11.3;;;8.0;;
37365;SDS011;23239;51.504;7.456;2023-03-02T02:05:00;11.3;;;8.0;;
37365;SDS011;23239;51.504;7.456;2023-03-02T02:06:03;11.3;;;8.0;;
37365;SDS011;23239;51.504;7.456;2023-03-02T02:07:00;11.3;;;8.0;;
37365;SDS011;23239;51.504;7.456;2023-03-02T02:08:00;11.3;;;8.0;;
37365;SDS011;23239;51.504;7.456;2023-03-02T02:09:00;12.7;;;8.3;;
37365;SDS011;23239;51.504;7.456;2023-03-02T02:10:00;12.7;;;8.3;;
37365;SDS011;23239;51.504;7.456;2023-03-02T02:11:00;12.7;;;8.3;;
37365;SDS011;23239;51.504;7.456;2023-03-02T02:12:00;12.7;;;8.3;;
37365;SDS011;23239;51.504;7.456;2023-03-02T02:13:00;12.7;;;8.3;;
37365;SDS011;23239;51.504;7.456;2023-03-02T02:14:00;11.7;;;8.0;;
37365;SDS011;23239;51.504;7.456;2023-03-02T02:15:00;11.7;;;8.0;;
37365;SDS011;23239;51.504;7.456;2023-03-02T02:16:00;11.7;;;8.0;;
37365;SDS011;23239;51.504;7.456;2023-03-02T02:17:02;11.7;;;8.0;;
37365;SDS011;23239;51.504;7.456;2023-03-02T02:18:00;11.7;;;8.0;;
37365;SDS011;23239;51.504;7.456;2023-03-02T02:19:00;10.7;;;7.8;;
37365;SDS011;23239;51.504;7.456;2023-03-02T02:20:02;10.7;;;7.8;;
37365;SDS011;23239;51.504;7.456;2023-03-02T02:21:00;10.7;;;7.8;;
37365;SDS011;23239;51.504;7.456;2023-03-02T02:22:00;10.7;;;7.8;;
37365;SDS011;23239;51.504;7.456;2023-03-02T02:23:03;10.7;;;7.8;;
37365;SDS011;23239;51.504;7.456;2023-03-02T02:24:02;12.6;;;8.3;;
37365;SDS011;23239;51.504;7.456;2023-03-02T02:25:00;12.6;;;8.3;;
37365;SDS011;23239;51.504;7.456;2023-03-02T02:26:03;12.6;;;8.3;;
37365;SDS011;23239;51.504;7.456;2023-03-02T02:27:00;12.6;;;8.3;;
37365;SDS011;23239;51.504;7.456;2023-03-02T02:28:00;12.6;;;8.3;;
37365;SDS011;23239;51.504;7.456;2023-03-02T02:29:00;12.4;;;8.5;;
37365;SDS011;23239;51.504;7.456;2023-03-02T02:30:01;12.4;;;8.5;;
37365;SDS011;23239;51.504;7.456;2023-03-02T02:31:03;12.4;;;8.5;;
37365;SDS011;23239;51.504;7.456;2023-03-02T02:32:00;12.4;;;8.5;;
37365;SDS011;23239;51.504;7.456;2023-03-02T02:33:00;12.4;;;8.5;;
37365;SDS011;23239;51.504;7.456;2023-03-02T02:34:01;11.7;;;8.4;;
37365;SDS011;23239;51.504;7.456;2023-03-02T02:35:00;11.7;;;8.4;;
37365;SDS011;23239;51.504;7.456;2023-03-02T02:36:01;11.7;;;8.4;;
37365;SDS011;23239;51.504;7.456;2023-03-02T02:37:02;11.7;;;8.4;;
37365;SDS011;23239;51.504;7.456;2023-03-02T02:38:01;11.7;;;8.4;;
37365;SDS011;23239;51.504;7.456;2023-03-02T02:39:00;11.1;;;8.0;;
37365;SDS011;23239;51.504;7.456;2023-03-02T02:40:00;11.1;;;8.0;;
37365;SDS011;23239;51.504;7.456;2023-03-02T02:41:00;11.1;;;8.0;;
37365;SDS011;23239;51.504;7.456;2023-03-02T02:42:01;11.1;;;8.0;;
37365;SDS011;23239;51.504;7.456;2023-03-02T02:43:00;11.1;;;8.0;;
37365;SDS011;23239;51.504;7.456;2023-03-02T02:44:00;12.2;;;7.8;;
37365;SDS011;23239;51.504;7.456;2023-03-02T02:45:00;12.2;;;7.8;;
37365;SDS011;23239;51.504;7.456;2023-03-02T02:46:00;12.2;;;7.8;;
37365;SDS011;23239;51.504;7.456;2023-03-02T02:47:04;12.2;;;7.8;;
37365;SDS011;23239;51.504;7.456;2023-03-02T02:48:00;12.2;;;7.8;;
37365;SDS011;23239;51.504;7.456;2023-03-02T02:49:01;11.6;;;7.9;;
37365;SDS011;23239;51.504;7.456;2023-03-02T02:50:00;11.6;;;7.9;;
37365;SDS011;23239;51.504;7.456;2023-03-02T02:51:00;11.6;;;7.9;;
37365;SDS011;23239;51.504;7.456;2023-03-02T02:52:00;11.6;;;7.9;;
37365;SDS011;23239;51.504;7.456;2023-03-02T02:53:01;11.6;;;7.9;;
37365;SDS011;23239;51.504;7.456;2023-03-02T02:54:00;12.7;;;7.8;;
37365;SDS011;23239;51.504;7.456;2023-03-02T02:55:02;12.7;;;7.8;;
37365;SDS011;23239;51.504;7.456;2023-03-02T02:56:00;12.7;;;7.8;;
37365;SDS011;23239;51.504;7.456;2023-03-02T02:57:00;12.7;;;7.8;;
37365;SDS011;23239;51.504;7.456;2023-03-02T02:58:00;12.7;;;7.8;;
37365;SDS011;23239;51.504;7.456;2023-03-02T02:59:01;10.9;;;7.7;;
37365;SDS011;23239;51.504;7.456;2023-03-02T03:00:00;10.9;;;7.7;;
37365;SDS011;23239;51.504;7.456;2023-03-02T03:01:00;10.9;;;7.7;;
37365;SDS011;23239;51.504;7.456;2023-03-02T03:02:00;10.9;;;7.7;;
37365;SDS011;23239;51.504;7.456;2023-03-02T03:03:00;10.9;;;7.7;;
37365;SDS011;23239;51.504;7.456;2023-03-02T03:04:00;12.0;;;8.6;;
37365;SDS011;23239;51.504;7.456;2023-03-02T03:05:00;12.0;;;8.6;;
37365;SDS011;23239;51.504;7.456;2023-03-02T03:06:00;12.0;;;8.6;;
37365;SDS011;23239;51.504;7.456;2023-03-02T03:07:00;12.0;;;8.6;;
37365;SDS011;23239;51.504;7.456;2023-03-02T03:08:08;12.0;;;8.6;;
37365;SDS011;23239;51.504;7.456;2023-03-02T03:09:00;12.1;;;8.2;;
37365;SDS011;23239;51.504;7.456;2023-03-02T03:10:00;12.1;;;8.2;;
37365;SDS011;23239;51.504;7.456;2023-03-02T03:11:00;12.1;;;8.2;;
37365;SDS011;23239;51.504;7.456;2023-03-02T03:12:00;12.1;;;8.2;;
37365;SDS011;23239;51.504;7.456;2023-03-02T03:13:00;12.1;;;8.2;;
37365;SDS011;23239;51.504;7.456;2023-03-02T03:14:02;11.1;;;8.1;;
37365;SDS011;23239;51.504;7.456;2023-03-02T03:15:00;11.1;;;8.1;;
37365;SDS011;23239;51.504;7.456;2023-03-02T03:16:00;11.1;;;8.1;;
37365;SDS011;23239;51.504;7.456;2023-03-02T03:17:00;11.1;;;8.1;;
37365;SDS011;23239;51.504;7.456;2023-03-02T03:18:00;11.1;;;8.1;;
37365;SDS011;23239;51.504;7.456;2023-03-02T03:19:02;14.3;;;8.4;;
37365;SDS011;23239;51.504;7.456;2023-03-02T03:20:00;14.3;;;8.4;;
37365;SDS011;23239;51.504;7.456;2023-03-02T03:21:00;14.3;;;8.4;;
37365;SDS011;23239;51.504;7.456;2023-03-02T03:22:00;14.3;;;8.4;;
37365;SDS011;23239;51.504;7.456;2023-03-02T03:23:00;14.3;;;8.4;;
37365;SDS011;23239;51.504;7.456;2023-03-02T03:24:00;12.7;;;8.6;;
37365;SDS011;23239;51.504;7.456;2023-03-02T03:25:00;12.7;;;8.6;;
37365;SDS011;23239;51.504;7.456;2023-03-02T03:26:00;12.7;;;8.6;;
37365;SDS011;23239;51.504;7.456;2023-03-02T03:27:00;12.7;;;8.6;;
37365;SDS011;23239;51.504;7.456;2023-03-02T03:28:00;12.7;;;8.6;;
37365;SDS011;23239;51.504;7.456;2023-03-02T03:29:00;12.2;;;8.0;;
37365;SDS011;23239;51.504;7.456;2023-03-02T03:30:00;12.2;;;8.0;;
37365;SDS011;23239;51.504;7.456;2023-03-02T03:31:00;12.2;;;8.0;;
37365;SDS011;23239;51.504;7.456;2023-03-02T03:32:00;12.2;;;8.0;;
37365;SDS011;23239;51.504;7.456;2023-03-02T03:33:02;12.2;;;8.0;;
37365;SDS011;23239;51.504;7.456;2023-03-02T03:34:00;11.8;;;8.5;;
37365;SDS011;23239;51.504;7.456;2023-03-02T03:35:00;11.8;;;8.5;;
37365;SDS011;23239;51.504;7.456;2023-03-02T03:36:00;11.8;;;8.5;;
37365;SDS011;23239;51.504;7.456;2023-03-02T03:37:00;11.8;;;8.5;;
37365;SDS011;23239;51.504;7.456;2023-03-02T03:38:00;11.8;;;8.5;;
37365;SDS011;23239;51.504;7.456;2023-03-02T03:39:00;11.5;;;8.1;;
37365;SDS011;23239;51.504;7.456;2023-03-02T03:40:00;11.5;;;8.1;;
37365;SDS011;23239;51.504;7.456;2023-03-02T03:41:00;11.5;;;8.1;;
37365;SDS011;23239;51.504;7.456;2023-03-02T03:42:00;11.5;;;8.1;;
37365;SDS011;23239;51.504;7.456;2023-03-02T03:43:00;11.5;;;8.1;;
37365;SDS011;23239;51.504;7.456;2023-03-02T03:44:00;11.2;;;7.8;;
37365;SDS011;23239;51.504;7.456;2023-03-02T03:45:00;11.2;;;7.8;;
37365;SDS011;23239;51.504;7.456;2023-03-02T03:46:00;11.2;;;7.8;;
37365;SDS011;23239;51.504;7.456;2023-03-02T03:47:00;11.2;;;7.8;;
37365;SDS011;23239;51.504;7.456;2023-03-02T03:48:00;11.2;;;7.8;;
37365;SDS011;23239;51.504;7.456;2023-03-02T03:49:00;11.6;;;8.1;;
37365;SDS011;23239;51.504;7.456;2023-03-02T03:50:00;11.6;;;8.1;;
37365;SDS011;23239;51.504;7.456;2023-03-02T03:51:00;11.6;;;8.1;;
37365;SDS011;23239;51.504;7.456;2023-03-02T03:52:00;11.6;;;8.1;;
37365;SDS011;23239;51.504;7.456;2023-03-02T03:53:00;11.6;;;8.1;;
37365;SDS011;23239;51.504;7.456;2023-03-02T03:54:00;11.4;;;8.2;;
37365;SDS011;23239;51.504;7.456;2023-03-02T03:55:00;11.4;;;8.2;;
37365;SDS011;23239;51.504;7.456;2023-03-02T03:56:00;11.4;;;8.2;;
37365;SDS011;23239;51.504;7.456;2023-03-02T03:57:00;11.4;;;8.2;;
37365;SDS011;23239;51.504;7.456;2023-03-02T03:58:00;11.4;;;8.2;;
37365;SDS011;23239;51.504;7.456;2023-03-02T03:59:00;12.2;;;8.2;;
37365;SDS011;23239;51.504;7.456;2023-03-02T04:00:00;12.2;;;8.2;;
37365;SDS011;23239;51.504;7.456;2023-03-02T04:01:00;12.2;;;8.2;;
37365;SDS011;23239;51.504;7.456;2023-03-02T04:02:00;12.2;;;8.2;;
37365;SDS011;23239;51.504;7.456;2023-03-02T04:03:00;12.2;;;8.2;;
37365;SDS011;23239;51.504;7.456;2023-03-02T04:04:00;12.7;;;8.3;;
37365;SDS011;23239;51.504;7.456;2023-03-02T04:05:00;12.7;;;8.3;;
37365;SDS011;23239;51.504;7.456;2023-03-02T04:06:00;12.7;;;8.3;;
37365;SDS011;23239;51.504;7.456;2023-03-02T04:07:00;12.7;;;8.3;;
37365;SDS011;23239;51.504;7.456;2023-03-02T04:08:00;12.7;;;8.3;;
37365;SDS011;23239;51.504;7.456;2023-03-02T04:09:00;11.8;;;8.2;;
37365;SDS011;23239;51.504;7.456;2023-03-02T04:10:00;11.8;;;8.2;;
37365;SDS011;23239;51.504;7.456;2023-03-02T04:11:00;11.8;;;8.2;;
37365;SDS011;23239;51.504;7.456;2023-03-02T04:12:00;11.8;;;8.2;;
37365;SDS011;23239;51.504;7.456;2023-03-02T04:13:00;11.8;;;8.2;;
37365;SDS011;23239;51.504;7.456;2023-03-02T04:14:00;11.3;;;8.7;;
37365;SDS011;23239;51.504;7.456;2023-03-02T04:15:00;11.3;;;8.7;;
37365;SDS011;23239;51.504;7.456;2023-03-02T04:16:00;11.3;;;8.7;;
37365;SDS011;23239;51.504;7.456;2023-03-02T04:17:00;11.3;;;8.7;;
37365;SDS011;23239;51.504;7.456;2023-03-02T04:18:00;11.3;;;8.7;;
37365;SDS011;23239;51.504;7.456;2023-03-02T04:19:00;12.1;;;8.6;;
37365;SDS011;23239;51.504;7.456;2023-03-02T04:20:00;12.1;;;8.6;;
37365;SDS011;23239;51.504;7.456;2023-03-02T04:21:00;12.1;;;8.6;;
37365;SDS011;23239;51.504;7.456;2023-03-02T04:22:00;12.1;;;8.6;;
37365;SDS011;23239;51.504;7.456;2023-03-02T04:23:00;12.1;;;8.6;;
37365;SDS011;23239;51.504;7.456;2023-03-02T04:24:00;10.4;;;7.7;;
37365;SDS011;23239;51.504;7.456;2023-03-02T04:25:00;10.4;;;7.7;;
37365;SDS011;23239;51.504;7.456;2023-03-02T04:26:00;10.4;;;7.7;;
37365;SDS011;23239;51.504;7.456;2023-03-02T04:27:00;10.4;;;7.7;;
37365;SDS011;23239;51.504;7.456;2023-03-02T04:28:00;10.4;;;7.7;;
37365;SDS011;23239;51.504;7.456;2023-03-02T04:29:00;10.2;;;7.9;;
37365;SDS011;23239;51.504;7.456;2023-03-02T04:30:00;10.2;;;7.9;;
37365;SDS011;23239;51.504;7.456;2023-03-02T04:31:00;10.2;;;7.9;;
37365;SDS011;23239;51.504;7.456;2023-03-02T04:32:00;10.2;;;7.9;;
37365;SDS011;23239;51.504;7.456;2023-03-02T04:33:00;10.2;;;7.9;;
37365;SDS011;23239;51.504;7.456;2023-03-02T04:34:00;12.0;;;7.9;;
37365;SDS011;23239;51.504;7.456;2023-03-02T04:35:00;12.0;;;7.9;;
37365;SDS011;23239;51.504;7.456;2023-03-02T04:36:00;12.0;;;7.9;;
37365;SDS011;23239;51.504;7.456;2023-03-02T04:37:00;12.0;;;7.9;;
37365;SDS011;23239;51.504;7.456;2023-03-02T04:38:00;12.0;;;7.9;;
37365;SDS011;23239;51.504;7.456;2023-03-02T04:39:03;10.1;;;7.1;;
37365;SDS011;23239;51.504;7.456;2023-03-02T04:40:00;10.1;;;7.1;;
37365;SDS011;23239;51.504;7.456;2023-03-02T04:41:00;10.1;;;7.1;;
37365;SDS011;23239;51.504;7.456;2023-03-02T04:42:00;10.1;;;7.1;;
37365;SDS011;23239;51.504;7.456;2023-03-02T04:43:00;10.1;;;7.1;;
37365;SDS011;23239;51.504;7.456;2023-03-02T04:44:00;13.0;;;7.6;;
37365;SDS011;23239;51.504;7.456;2023-03-02T04:45:00;13.0;;;7.6;;
37365;SDS011;23239;51.504;7.456;2023-03-02T04:46:00;13.0;;;7.6;;
37365;SDS011;23239;51.504;7.456;2023-03-02T04:47:00;13.0;;;7.6;;
37365;SDS011;23239;51.504;7.456;2023-03-02T04:48:00;13.0;;;7.6;;
37365;SDS011;23239;51.504;7.456;2023-03-02T04:49:00;10.6;;;7.2;;
37365;SDS011;23239;51.504;7.456;2023-03-02T04:50:00;10.6;;;7.2;;
37365;SDS011;23239;51.504;7.456;2023-03-02T04:51:00;10.6;;;7.2;;
37365;SDS011;23239;51.504;7.456;2023-03-02T04:52:00;10.6;;;7.2;;
37365;SDS011;23239;51.504;7.456;2023-03-02T04:53:00;10.6;;;7.2;;
37365;SDS011;23239;51.504;7.456;2023-03-02T04:54:01;11.0;;;7.5;;
37365;SDS011;23239;51.504;7.456;2023-03-02T04:56:00;11.0;;;7.5;;
37365;SDS011;23239;51.504;7.456;2023-03-02T04:57:00;11.0;;;7.5;;
37365;SDS011;23239;51.504;7.456;2023-03-02T04:58:00;11.0;;;7.5;;
37365;SDS011;23239;51.504;7.456;2023-03-02T04:59:00;11.1;;;7.6;;
37365;SDS011;23239;51.504;7.456;2023-03-02T05:00:00;11.1;;;7.6;;
37365;SDS011;23239;51.504;7.456;2023-03-02T05:01:00;11.1;;;7.6;;
37365;SDS011;23239;51.504;7.456;2023-03-02T05:02:00;11.1;;;7.6;;
37365;SDS011;23239;51.504;7.456;2023-03-02T05:03:00;11.1;;;7.6;;
37365;SDS011;23239;51.504;7.456;2023-03-02T05:04:00;10.3;;;7.4;;
37365;SDS011;23239;51.504;7.456;2023-03-02T05:05:00;10.3;;;7.4;;
37365;SDS011;23239;51.504;7.456;2023-03-02T05:06:02;10.3;;;7.4;;
37365;SDS011;23239;51.504;7.456;2023-03-02T05:07:00;10.3;;;7.4;;
37365;SDS011;23239;51.504;7.456;2023-03-02T05:08:00;10.3;;;7.4;;
37365;SDS011;23239;51.504;7.456;2023-03-02T05:09:00;11.2;;;7.8;;
37365;SDS011;23239;51.504;7.456;2023-03-02T05:10:00;11.2;;;7.8;;
37365;SDS011;23239;51.504;7.456;2023-03-02T05:11:00;11.2;;;7.8;;
37365;SDS011;23239;51.504;7.456;2023-03-02T05:12:00;11.2;;;7.8;;
37365;SDS011;23239;51.504;7.456;2023-03-02T05:13:00;11.2;;;7.8;;
37365;SDS011;23239;51.504;7.456;2023-03-02T05:14:00;10.5;;;7.3;;
37365;SDS011;23239;51.504;7.456;2023-03-02T05:15:00;10.5;;;7.3;;
37365;SDS011;23239;51.504;7.456;2023-03-02T05:16:01;10.5;;;7.3;;
37365;SDS011;23239;51.504;7.456;2023-03-02T05:17:00;10.5;;;7.3;;
37365;SDS011;23239;51.504;7.456;2023-03-02T05:18:00;10.5;;;7.3;;
37365;SDS011;23239;51.504;7.456;2023-03-02T05:20:00;10.7;;;7.4;;
37365;SDS011;23239;51.504;7.456;2023-03-02T05:21:00;10.7;;;7.4;;
37365;SDS011;23239;51.504;7.456;2023-03-02T05:22:00;10.7;;;7.4;;
37365;SDS011;23239;51.504;7.456;2023-03-02T05:23:01;10.7;;;7.4;;
37365;SDS011;23239;51.504;7.456;2023-03-02T05:24:00;10.0;;;7.2;;
37365;SDS011;23239;51.504;7.456;2023-03-02T05:25:00;10.0;;;7.2;;
37365;SDS011;23239;51.504;7.456;2023-03-02T05:26:00;10.0;;;7.2;;
37365;SDS011;23239;51.504;7.456;2023-03-02T05:27:00;10.0;;;7.2;;
37365;SDS011;23239;51.504;7.456;2023-03-02T05:28:00;10.0;;;7.2;;
37365;SDS011;23239;51.504;7.456;2023-03-02T05:29:00;10.5;;;7.3;;
37365;SDS011;23239;51.504;7.456;2023-03-02T05:30:00;10.5;;;7.3;;
37365;SDS011;23239;51.504;7.456;2023-03-02T05:31:00;10.5;;;7.3;;
37365;SDS011;23239;51.504;7.456;2023-03-02T05:32:00;10.5;;;7.3;;
37365;SDS011;23239;51.504;7.456;2023-03-02T05:33:00;10.5;;;7.3;;
37365;SDS011;23239;51.504;7.456;2023-03-02T05:34:00;11.1;;;7.7;;
37365;SDS011;23239;51.504;7.456;2023-03-02T05:35:00;11.1;;;7.7;;
37365;SDS011;23239;51.504;7.456;2023-03-02T05:36:00;11.1;;;7.7;;
37365;SDS011;23239;51.504;7.456;2023-03-02T05:37:00;11.1;;;7.7;;
37365;SDS011;23239;51.504;7.456;2023-03-02T05:38:00;11.1;;;7.7;;
37365;SDS011;23239;51.504;7.456;2023-03-02T05:39:00;11.5;;;8.3;;
37365;SDS011;23239;51.504;7.456;2023-03-02T05:40:00;11.5;;;8.3;;
37365;SDS011;23239;51.504;7.456;2023-03-02T05:41:00;11.5;;;8.3;;
37365;SDS011;23239;51.504;7.456;2023-03-02T05:42:00;11.5;;;8.3;;
37365;SDS011;23239;51.504;7.456;2023-03-02T05:43:00;11.5;;;8.3;;
37365;SDS011;23239;51.504;7.456;2023-03-02T05:44:00;12.4;;;8.2;;
37365;SDS011;23239;51.504;7.456;2023-03-02T05:45:00;12.4;;;8.2;;
37365;SDS011;23239;51.504;7.456;2023-03-02T05:46:00;12.4;;;8.2;;
37365;SDS011;23239;51.504;7.456;2023-03-02T05:47:00;12.4;;;8.2;;
37365;SDS011;23239;51.504;7.456;2023-03-02T05:48:00;12.4;;;8.2;;
37365;SDS011;23239;51.504;7.456;2023-03-02T05:49:00;11.4;;;8.0;;
37365;SDS011;23239;51.504;7.456;2023-03-02T05:50:00;11.4;;;8.0;;
37365;SDS011;23239;51.504;7.456;2023-03-02T05:51:00;11.4;;;8.0;;
37365;SDS011;23239;51.504;7.456;2023-03-02T05:52:00;11.4;;;8.0;;
37365;SDS011;23239;51.504;7.456;2023-03-02T05:53:00;11.4;;;8.0;;
37365;SDS011;23239;51.504;7.456;2023-03-02T05:54:01;11.4;;;8.1;;
37365;SDS011;23239;51.504;7.456;2023-03-02T05:55:00;11.4;;;8.1;;
37365;SDS011;23239;51.504;7.456;2023-03-02T05:56:00;11.4;;;8.1;;
37365;SDS011;23239;51.504;7.456;2023-03-02T05:57:00;11.4;;;8.1;;
37365;SDS011;23239;51.504;7.456;2023-03-02T05:58:00;11.4;;;8.1;;
37365;SDS011;23239;51.504;7.456;2023-03-02T05:59:00;11.9;;;7.8;;
37365;SDS011;23239;51.504;7.456;2023-03-02T06:00:00;11.9;;;7.8;;
37365;SDS011;23239;51.504;7.456;2023-03-02T06:01:00;11.9;;;7.8;;
37365;SDS011;23239;51.504;7.456;2023-03-02T06:02:00;11.9;;;7.8;;
37365;SDS011;23239;51.504;7.456;2023-03-02T06:03:00;11.9;;;7.8;;
37365;SDS011;23239;51.504;7.456;2023-03-02T06:04:00;11.3;;;8.2;;
37365;SDS011;23239;51.504;7.456;2023-03-02T06:05:00;11.3;;;8.2;;
37365;SDS011;23239;51.504;7.456;2023-03-02T06:06:00;11.3;;;8.2;;
37365;SDS011;23239;51.504;7.456;2023-03-02T06:07:00;11.3;;;8.2;;
37365;SDS011;23239;51.504;7.456;2023-03-02T06:08:00;11.3;;;8.2;;